Town of Tonawanda, New York
Current Conditions -  °F | °C
As of 12:54 PM on Thursday 27 Nov 2014 (Local Time) from KBUF Reporting Station
Broken Clouds Broken Clouds  
Wind Chill: 28°   Ceiling: 2200
Heat Index: 33°   Visibility: 10mi
Dew Point: 24°   Wind: 6mph
Humidity: 70%   Direction: 260°W
Pressure: 30.04"   Gusts: NA
Location:  42.9519°N, 78.8981°W
Report Text: KBUF 271754Z 26005KT 10SM BKN022 BKN032 01/M04 A3004 RMK AO2 SNE32 SLP180 P0000 60000 T00061044 10011 21022 58009
Loading
Personal Weather Stations






























Interactive Weather Map New forecast layout! Learn more

10-Day Weather Forecast

Advertisements
Track Severe Weather on mobile